LFPG

Charles de Gaulle International Airport

Paris, France
METAR LFPG 170630Z 23013KT 9999 SCT017 05/03 Q1006 NOSIG
Observed Flight Rules
Jan-17 @ 06:30 UTC (50 minutes ago) Visual Flight Rules
Wind Visibility Clouds
230° at 13 knots 10,000+ meters
  • Scattered at 1,700' AGL
Temperatures Readings
Current 5°C / 41°F
Dewpoint 3°C / 37°F
Humidity 87%
Altimeter 29.7" Hg
Pressure 1005.92 hPa
Elevation 109
METAR LFPG 170630Z 23013KT 9999 SCT017 05/03 Q1006 NOSIG
Observed Flight Rules
Jan-17 @ 06:30 UTC
(50 minutes ago)
VFR
Wind Visibility
230° at 13 knots 10,000+ meters
Clouds
  • Scattered at 1,700' AGL
Temperature Dewpoint
5°C / 41°F 3°C / 37°F
Humidity Altimeter Pressure
87% 29.7" Hg 1005.92 hPa